createdAt,value
2019-03-09T08:05:02.111Z,11.20
2019-03-09T08:06:01.624Z,16.90
2019-03-09T08:07:01.733Z,17.50
2019-03-09T08:08:01.563Z,16.40
2019-03-09T08:09:03.305Z,16.40
2019-03-09T08:10:01.672Z,18.70
2019-03-09T08:11:01.545Z,18.20
2019-03-09T08:12:01.457Z,17.40
2019-03-09T08:13:01.523Z,16.80
2019-03-09T08:14:01.407Z,17.40
2019-03-09T08:15:01.402Z,18.80
2019-03-09T08:16:01.431Z,13.40
2019-03-09T08:17:01.453Z,18.40
2019-03-09T08:18:01.359Z,17.60
2019-03-09T08:19:01.364Z,15.40
2019-03-09T08:20:01.385Z,15.80
2019-03-09T08:21:01.437Z,19.90
2019-03-09T08:22:01.374Z,17.40
2019-03-09T08:23:01.322Z,20.50
2019-03-09T08:24:01.322Z,19.70
2019-03-09T08:28:41.358Z,15.90
2019-03-09T08:31:27.076Z,19.60
2019-03-09T08:32:26.691Z,15.60
2019-03-09T08:40:50.130Z,15.70
2019-03-09T08:57:19.577Z,11.30
2019-03-09T08:58:19.198Z,15.00
2019-03-09T08:59:19.134Z,15.80
2019-03-09T09:00:19.189Z,12.90
2019-03-09T09:01:20.818Z,13.90
2019-03-09T09:02:19.042Z,13.50
2019-03-09T09:03:19.009Z,14.70
2019-03-09T09:04:19.022Z,15.70
2019-03-09T09:05:18.994Z,13.50
2019-03-09T09:06:19.092Z,15.90
2019-03-09T09:07:19.141Z,16.30
2019-03-09T09:08:18.969Z,13.50
2019-03-09T09:09:18.975Z,13.60
2019-03-09T09:10:18.937Z,15.80
2019-03-09T09:11:18.955Z,14.00
2019-03-09T09:12:18.930Z,17.60
2019-03-09T09:13:18.907Z,13.90
2019-03-09T09:14:18.908Z,13.60
2019-03-09T09:15:18.904Z,13.60
2019-03-09T09:16:18.901Z,13.10
2019-03-09T09:17:18.862Z,13.60
2019-03-09T09:18:18.844Z,14.40
2019-03-09T09:19:18.832Z,14.00
2019-03-09T09:20:18.870Z,13.30
2019-03-09T09:21:18.802Z,14.60
2019-03-09T09:22:18.915Z,18.00
2019-03-09T09:23:18.778Z,12.40
2019-03-09T09:24:18.770Z,11.10
2019-03-09T09:25:18.756Z,12.00
2019-03-09T09:48:54.693Z,11.80
2019-03-09T09:49:53.492Z,13.80
2019-03-09T10:00:33.575Z,19.80
2019-03-09T10:03:06.798Z,12.70
2019-03-09T10:04:06.873Z,11.30
2019-03-09T10:46:41.979Z,9.20
2019-03-09T11:08:39.231Z,8.50
2019-03-09T11:09:39.534Z,7.30
2019-03-09T11:10:41.505Z,9.60
2019-03-09T11:16:56.448Z,9.20
2019-03-09T11:17:56.019Z,8.10
2019-03-09T11:22:32.449Z,6.10
2019-03-09T11:23:34.458Z,10.40
2019-03-09T11:24:33.123Z,7.50
2019-03-09T11:25:31.921Z,8.00
2019-03-09T11:26:31.915Z,10.00
2019-03-09T11:29:01.700Z,11.40
2019-03-09T11:30:01.366Z,8.50
2019-03-09T11:31:01.264Z,11.50
2019-03-09T11:32:01.331Z,8.90
2019-03-09T11:33:01.161Z,6.80
2019-03-09T11:34:01.094Z,7.80
2019-03-09T11:35:01.174Z,7.20
2019-03-09T11:36:01.080Z,13.00
2019-03-09T11:37:01.069Z,8.00
2019-03-09T11:38:01.046Z,6.90
2019-03-09T11:47:47.272Z,4.20
2019-03-09T11:48:47.496Z,8.20
2019-03-09T11:49:47.034Z,10.30
2019-03-09T11:50:46.891Z,8.20
2019-03-09T11:51:48.374Z,6.70
2019-03-09T11:52:46.921Z,8.30
2019-03-09T12:31:16.309Z,12.70
2019-03-09T12:35:52.710Z,10.50
2019-03-09T12:36:52.249Z,7.30
2019-03-09T12:37:52.173Z,8.00
2019-03-09T12:38:52.207Z,5.70
2019-03-09T12:39:52.400Z,6.30
2019-03-09T12:40:52.214Z,7.60
2019-03-09T12:41:52.733Z,6.40
2019-03-09T12:42:52.064Z,7.10
2019-03-09T12:43:52.052Z,7.10
2019-03-09T12:44:52.066Z,9.80
2019-03-09T12:45:52.969Z,7.30
2019-03-09T12:46:52.022Z,6.50
2019-03-09T12:47:52.955Z,6.00
2019-03-09T12:48:52.005Z,7.20
2019-03-09T12:49:52.029Z,5.80
2019-03-09T12:50:51.972Z,8.80
2019-03-09T12:51:51.997Z,7.30
2019-03-09T12:52:51.969Z,7.60
2019-03-09T12:53:52.527Z,8.10
2019-03-09T12:54:52.325Z,9.30
2019-03-09T12:58:24.948Z,12.50
2019-03-09T12:59:07.050Z,12.50
2019-03-09T13:00:06.521Z,10.00
2019-03-09T13:01:06.427Z,9.20
2019-03-09T13:02:06.439Z,5.80
2019-03-09T13:03:06.339Z,10.60
2019-03-09T13:04:06.304Z,5.70
2019-03-09T13:05:06.387Z,6.80
2019-03-09T13:09:15.911Z,4.00
2019-03-09T13:13:04.233Z,3.60
2019-03-09T13:14:03.673Z,6.60
2019-03-09T13:15:04.747Z,5.00
2019-03-09T13:16:03.708Z,6.30
2019-03-09T13:17:03.501Z,8.20
2019-03-09T13:18:06.289Z,6.60
2019-03-09T13:19:03.581Z,5.40
2019-03-09T13:20:03.939Z,8.50
2019-03-09T13:21:03.526Z,4.10
2019-03-09T13:22:03.442Z,6.60
2019-03-09T13:23:03.454Z,7.70
2019-03-09T13:24:03.433Z,4.80
2019-03-09T13:25:03.392Z,5.10
2019-03-09T13:26:03.432Z,5.50
2019-03-09T13:27:03.485Z,5.60
2019-03-09T13:28:04.069Z,7.30
2019-03-09T13:29:13.215Z,4.30
2019-03-09T13:30:06.821Z,5.40
2019-03-09T13:31:04.596Z,6.00
2019-03-09T13:41:02.543Z,7.50
2019-03-09T13:42:01.780Z,5.10
2019-03-09T13:43:01.753Z,6.60
2019-03-09T13:44:02.988Z,4.80
2019-03-09T13:45:01.878Z,4.80
2019-03-09T13:46:01.744Z,3.80
2019-03-09T13:47:04.108Z,5.90
2019-03-09T13:48:01.687Z,5.80
2019-03-09T13:49:02.896Z,5.40
2019-03-09T13:50:01.656Z,5.60
2019-03-09T13:51:01.640Z,6.90
2019-03-09T13:52:01.679Z,7.20
2019-03-09T13:53:01.592Z,5.80
2019-03-09T13:54:01.633Z,9.80
2019-03-09T13:55:01.634Z,8.00
2019-03-09T13:56:01.552Z,7.00
2019-03-09T13:57:01.609Z,7.00
2019-03-09T13:58:01.655Z,6.20
2019-03-09T13:59:02.365Z,10.20
2019-03-09T14:00:01.777Z,9.60
2019-03-09T14:01:01.646Z,10.60
2019-03-09T14:02:01.712Z,10.10
2019-03-09T14:03:03.182Z,10.00
2019-03-09T14:04:02.553Z,10.40
2019-03-09T14:05:01.506Z,11.70
2019-03-09T14:06:01.477Z,15.00
2019-03-09T14:07:02.577Z,10.00
2019-03-09T14:08:01.488Z,8.50
2019-03-09T14:09:01.411Z,8.90
2019-03-09T14:10:02.403Z,14.80
2019-03-09T14:11:01.376Z,9.90
2019-03-09T14:13:27.502Z,11.20
2019-03-09T14:14:26.446Z,16.90
2019-03-09T14:18:09.001Z,6.20
2019-03-09T14:19:09.150Z,16.80
2019-03-09T14:20:08.473Z,18.30
2019-03-09T14:21:08.281Z,12.70
2019-03-09T14:22:08.322Z,11.50
2019-03-09T14:23:08.329Z,12.50
2019-03-09T14:25:40.493Z,14.60
2019-03-09T14:26:32.230Z,14.60
2019-03-09T14:32:09.540Z,21.30
2019-03-09T14:33:09.367Z,13.00
2019-03-09T14:34:08.948Z,18.10
2019-03-09T14:35:08.970Z,17.30
2019-03-09T14:36:09.062Z,16.60
2019-03-09T14:37:08.927Z,14.20
2019-03-09T14:38:11.719Z,11.30
2019-03-09T14:39:08.828Z,10.50
2019-03-09T14:40:08.872Z,12.70
2019-03-09T14:41:08.852Z,11.60
2019-03-09T14:42:08.825Z,12.40
2019-03-09T14:43:08.885Z,11.10
2019-03-09T14:44:08.742Z,11.50
2019-03-09T14:45:08.713Z,12.50
2019-03-09T14:46:08.863Z,10.50
2019-03-09T14:47:08.741Z,11.20
2019-03-09T14:48:09.724Z,14.00
2019-03-09T14:49:09.268Z,9.70
2019-03-09T14:50:08.645Z,11.40
2019-03-09T14:51:08.877Z,9.90
2019-03-09T14:52:08.722Z,9.30
2019-03-09T14:53:08.644Z,11.30
2019-03-09T14:54:09.290Z,9.70
2019-03-09T14:55:08.595Z,8.40
2019-03-09T14:56:08.578Z,12.30
2019-03-09T14:57:08.720Z,7.00
2019-03-09T14:58:08.560Z,11.40
2019-03-09T14:59:08.564Z,8.20
2019-03-09T15:00:08.592Z,8.90
2019-03-09T15:01:08.616Z,8.30
2019-03-09T15:02:08.534Z,9.90
2019-03-09T15:03:08.543Z,10.60
2019-03-09T15:04:08.558Z,9.20
2019-03-09T15:05:08.495Z,8.50
2019-03-09T15:06:08.490Z,8.40
2019-03-09T15:07:08.482Z,10.40
2019-03-09T15:08:08.487Z,9.80
2019-03-09T15:09:09.283Z,11.30
2019-03-09T15:10:08.438Z,9.70
2019-03-09T15:11:08.429Z,13.70
2019-03-09T15:12:17.014Z,11.30
2019-03-09T15:13:09.714Z,10.90
2019-03-09T15:14:17.576Z,12.90
2019-03-09T15:16:53.831Z,20.60
2019-03-09T15:17:50.075Z,12.30
2019-03-09T15:18:50.264Z,12.50
2019-03-09T15:19:50.106Z,11.10
2019-03-09T15:20:49.944Z,15.80
2019-03-09T15:21:49.915Z,13.40
2019-03-09T15:22:49.897Z,12.40
2019-03-09T15:23:49.923Z,11.30
2019-03-09T15:24:49.882Z,9.20
2019-03-09T15:25:49.863Z,8.40
2019-03-09T15:26:49.871Z,8.80
2019-03-09T15:27:49.853Z,9.90
2019-03-09T15:28:49.943Z,9.70
2019-03-09T15:29:49.967Z,9.40
2019-03-09T15:30:49.966Z,10.40
2019-03-09T15:31:49.812Z,10.60
2019-03-09T15:32:49.810Z,10.50
2019-03-09T15:33:49.794Z,10.40
2019-03-09T15:34:49.920Z,11.10
2019-03-09T15:35:49.810Z,11.60
2019-03-09T15:36:49.921Z,12.00
2019-03-09T15:37:49.735Z,10.10
2019-03-09T15:38:49.752Z,10.70
2019-03-09T15:39:49.713Z,12.20
2019-03-09T15:40:52.427Z,13.00
2019-03-09T15:49:28.310Z,9.90
2019-03-09T15:50:27.249Z,16.30
2019-03-09T15:51:28.115Z,15.50
2019-03-09T15:54:28.231Z,7.20
2019-03-09T15:55:24.055Z,15.70
2019-03-09T15:56:24.253Z,14.00
2019-03-09T15:57:24.136Z,10.80
2019-03-09T15:58:24.825Z,12.90
2019-03-09T15:59:24.035Z,10.40
2019-03-09T16:00:24.004Z,7.40
2019-03-09T16:01:24.039Z,8.20
2019-03-09T16:02:25.932Z,22.60
2019-03-09T16:03:24.678Z,7.60
2019-03-09T16:04:23.935Z,7.80
2019-03-09T16:05:23.996Z,10.40
2019-03-09T16:06:23.892Z,7.30
2019-03-09T16:07:23.882Z,15.40
2019-03-09T16:08:23.863Z,9.30
2019-03-09T16:09:23.899Z,6.20
2019-03-09T16:10:23.846Z,9.50
2019-03-09T16:11:23.841Z,7.40
2019-03-09T16:12:23.856Z,7.50
2019-03-09T16:13:24.521Z,8.80
2019-03-09T16:14:23.827Z,8.70
2019-03-09T16:15:23.787Z,7.80
2019-03-09T16:16:23.818Z,8.70
2019-03-09T16:17:23.823Z,12.00
2019-03-09T16:18:23.820Z,7.60
2019-03-09T16:19:23.784Z,8.20
2019-03-09T16:20:23.736Z,9.70
2019-03-09T16:21:23.793Z,10.90
2019-03-09T16:22:23.709Z,16.90
2019-03-09T16:23:23.775Z,9.60
2019-03-09T16:24:25.493Z,9.70
2019-03-09T16:25:23.753Z,8.30
2019-03-09T16:26:23.739Z,13.60
2019-03-09T16:27:23.786Z,13.30
2019-03-09T16:28:23.668Z,10.40
2019-03-09T16:29:23.636Z,11.60
2019-03-09T16:30:23.633Z,10.40
2019-03-09T16:31:23.728Z,10.40
2019-03-09T16:32:23.614Z,14.20
2019-03-09T16:33:23.660Z,13.50
2019-03-09T18:23:37.232Z,9.70
2019-03-09T18:24:36.795Z,13.40
2019-03-09T18:25:36.789Z,15.40
2019-03-09T18:26:36.817Z,12.10
2019-03-09T18:27:36.790Z,12.40
2019-03-09T18:28:36.720Z,12.10
2019-03-09T18:29:36.781Z,13.20
2019-03-09T18:30:36.739Z,12.10
2019-03-09T18:31:36.669Z,12.50
2019-03-09T18:32:36.875Z,10.80
2019-03-09T18:33:36.673Z,10.90
2019-03-09T18:34:36.637Z,11.20
2019-03-09T18:35:36.688Z,13.70
2019-03-09T18:36:36.623Z,14.30
2019-03-09T18:37:36.626Z,8.80
2019-03-09T18:38:36.719Z,10.50
2019-03-09T18:39:36.579Z,9.80
2019-03-09T18:40:36.571Z,12.40
2019-03-09T18:41:36.559Z,8.20
2019-03-09T18:42:36.606Z,10.30
2019-03-09T18:43:36.542Z,11.00
2019-03-09T18:44:36.547Z,8.10
2019-03-09T18:45:36.534Z,10.30
2019-03-09T18:46:36.498Z,10.30
2019-03-09T18:47:36.506Z,9.50
2019-03-09T18:48:36.484Z,10.60
2019-03-09T18:49:36.883Z,8.60
2019-03-09T18:50:36.466Z,12.10
2019-03-09T18:51:36.461Z,9.30
2019-03-09T18:52:36.449Z,6.60
2019-03-09T18:53:36.431Z,11.60
2019-03-09T18:54:36.414Z,11.00
2019-03-09T18:55:36.404Z,9.60
2019-03-09T18:56:36.453Z,12.40
2019-03-09T18:57:36.439Z,9.70
2019-03-09T18:58:36.378Z,11.60
2019-03-09T18:59:36.364Z,11.50
2019-03-09T19:00:36.378Z,10.00
2019-03-09T19:01:36.407Z,11.10
2019-03-09T19:02:36.339Z,10.00
2019-03-09T19:03:36.344Z,10.00
2019-03-09T19:04:36.725Z,12.50
2019-03-09T19:08:11.697Z,10.50
2019-03-09T19:09:14.490Z,10.30
2019-03-09T19:10:11.589Z,29.60
2019-03-09T19:11:11.989Z,10.90
2019-03-09T19:12:11.545Z,14.80
2019-03-09T19:13:11.614Z,13.50
2019-03-09T19:14:11.484Z,12.50
2019-03-09T19:15:11.616Z,12.30
2019-03-09T19:16:11.449Z,12.60
2019-03-09T19:17:11.434Z,13.10
2019-03-09T19:18:11.429Z,11.00
2019-03-09T19:19:11.467Z,11.10
2019-03-09T19:20:11.432Z,11.80
2019-03-09T19:21:13.512Z,10.70
2019-03-09T19:22:12.115Z,9.20
2019-03-09T19:23:11.407Z,14.80
2019-03-09T19:24:11.400Z,22.30
2019-03-09T19:25:11.372Z,13.60
2019-03-09T19:26:11.351Z,31.60
2019-03-09T19:27:11.332Z,13.70
2019-03-09T19:28:11.365Z,12.90
2019-03-09T19:29:11.310Z,12.10
2019-03-09T19:30:11.294Z,8.90
2019-03-09T19:31:11.351Z,14.80
2019-03-09T19:32:11.286Z,11.70
2019-03-09T19:33:11.281Z,14.60
2019-03-09T19:34:12.023Z,17.00
2019-03-09T19:35:11.315Z,15.00
2019-03-09T19:36:11.238Z,11.90
2019-03-09T19:37:11.305Z,11.30
2019-03-09T19:43:15.985Z,7.00
2019-03-09T19:44:15.516Z,13.80
2019-03-09T19:45:16.538Z,11.60
2019-03-09T19:48:31.824Z,14.00
2019-03-09T19:49:31.550Z,10.20
2019-03-09T19:50:31.188Z,17.00
2019-03-09T19:51:31.090Z,15.10
2019-03-09T19:52:31.137Z,11.20
2019-03-09T19:53:31.068Z,13.90
2019-03-09T19:54:41.108Z,16.30
2019-03-09T20:06:59.320Z,16.70
2019-03-09T20:07:59.116Z,14.80
2019-03-09T20:08:58.798Z,12.40
2019-03-09T20:09:58.676Z,12.60
2019-03-09T20:10:58.785Z,10.80
2019-03-09T20:11:58.748Z,13.20
2019-03-09T20:12:58.740Z,11.40
2019-03-09T20:13:59.682Z,7.90
2019-03-09T20:14:58.679Z,12.70
2019-03-09T20:23:43.902Z,16.60
2019-03-09T20:35:31.398Z,8.50
2019-03-09T20:40:47.102Z,8.30
2019-03-09T20:50:09.050Z,9.10
2019-03-09T20:51:08.477Z,8.20
2019-03-09T20:52:08.430Z,9.40
2019-03-09T20:53:08.206Z,13.50
2019-03-09T20:54:08.178Z,11.60
2019-03-09T20:55:08.166Z,9.20
2019-03-09T20:56:08.158Z,9.80
2019-03-09T20:57:08.210Z,12.80
2019-03-09T20:58:08.176Z,13.70
2019-03-09T20:59:08.123Z,13.00
2019-03-09T21:00:08.280Z,12.90
2019-03-09T21:01:08.119Z,16.00
2019-03-09T21:02:08.156Z,7.90
2019-03-09T21:03:08.185Z,11.40
2019-03-09T21:04:08.117Z,13.20
2019-03-09T21:05:08.155Z,11.60
2019-03-09T21:06:08.106Z,11.50
2019-03-09T21:07:08.946Z,12.10
2019-03-09T21:08:08.019Z,11.00
2019-03-09T21:09:08.018Z,14.90
2019-03-09T21:10:08.020Z,12.80
2019-03-09T21:11:08.017Z,12.20
2019-03-09T21:12:08.059Z,13.50
2019-03-09T21:13:08.037Z,14.20
2019-03-09T21:14:07.987Z,13.50
2019-03-09T21:15:07.993Z,13.60
2019-03-09T21:16:07.961Z,14.40
2019-03-09T21:17:07.936Z,13.40
2019-03-09T21:18:07.909Z,14.90
2019-03-09T21:19:07.989Z,10.80
2019-03-09T21:20:07.901Z,14.30
2019-03-09T21:21:07.899Z,14.10
2019-03-09T21:22:07.868Z,14.30
2019-03-09T21:23:07.919Z,11.50
2019-03-09T21:24:07.864Z,12.10
2019-03-09T21:25:07.952Z,14.90
2019-03-09T21:26:07.852Z,17.80
2019-03-09T21:27:07.820Z,17.80
2019-03-09T21:28:07.805Z,19.10
2019-03-09T21:29:07.792Z,12.70
2019-03-09T21:30:07.833Z,14.50
2019-03-09T21:31:07.790Z,15.90
2019-03-09T21:32:07.758Z,11.40
2019-03-09T21:33:07.743Z,15.60
2019-03-09T21:34:07.765Z,13.70
2019-03-09T21:35:07.779Z,14.10
2019-03-09T21:36:07.714Z,16.50
2019-03-09T21:37:07.726Z,13.50
2019-03-09T21:38:07.707Z,17.80
2019-03-09T21:39:07.685Z,11.40
2019-03-09T21:40:07.674Z,17.80
2019-03-09T21:41:07.705Z,17.40
2019-03-09T21:42:07.654Z,16.50
2019-03-09T21:43:07.641Z,21.10
2019-03-09T21:44:07.662Z,17.50
2019-03-09T21:45:07.626Z,17.00
2019-03-09T21:46:07.636Z,16.80
2019-03-09T21:47:07.627Z,15.20
2019-03-09T21:48:07.685Z,15.80
2019-03-09T21:49:07.587Z,17.10
2019-03-09T21:50:07.568Z,19.00
2019-03-09T21:51:07.592Z,16.50
2019-03-09T21:52:07.631Z,16.20
2019-03-09T21:53:07.548Z,20.80
2019-03-09T21:54:07.574Z,17.70
2019-03-09T21:55:07.511Z,15.70
2019-03-09T21:56:07.591Z,17.70
2019-03-09T21:57:07.486Z,18.20
2019-03-09T21:58:07.474Z,16.40
2019-03-09T21:59:07.514Z,17.80
2019-03-09T22:00:07.474Z,17.60
2019-03-09T22:01:07.508Z,18.20
2019-03-09T22:02:07.480Z,15.90
2019-03-09T22:03:07.427Z,16.50
2019-03-09T22:04:07.415Z,19.10
2019-03-09T22:05:07.479Z,14.10
2019-03-09T22:06:07.391Z,16.10
2019-03-09T22:07:07.422Z,18.20
2019-03-09T22:08:07.477Z,17.30
2019-03-09T22:09:07.431Z,16.20
2019-03-09T22:10:07.358Z,17.60
2019-03-09T22:11:07.368Z,14.80
2019-03-09T22:12:07.365Z,15.90
2019-03-09T22:13:07.320Z,15.90
2019-03-09T22:14:07.301Z,15.30
2019-03-09T22:15:07.288Z,15.70
2019-03-09T22:16:07.319Z,15.50
2019-03-09T22:17:07.330Z,18.60
2019-03-09T22:18:07.259Z,17.70
2019-03-09T22:19:07.253Z,20.00
2019-03-09T22:20:07.306Z,11.90
2019-03-09T22:21:07.261Z,14.40
2019-03-09T22:22:07.337Z,13.50
2019-03-09T22:23:07.253Z,15.00
2019-03-09T22:24:07.220Z,12.80
2019-03-09T22:25:07.190Z,12.30
2019-03-09T22:26:07.168Z,13.20
2019-03-09T22:27:07.155Z,13.70
2019-03-09T22:28:07.179Z,15.10
2019-03-09T22:29:07.889Z,12.80
2019-03-09T22:30:07.154Z,18.10
2019-03-09T22:31:07.148Z,15.10
2019-03-09T22:32:07.155Z,16.00
2019-03-09T22:33:07.167Z,13.40
2019-03-09T22:34:07.113Z,15.10
2019-03-09T22:35:07.971Z,14.20
2019-03-09T22:36:07.163Z,13.40
2019-03-09T22:37:07.056Z,12.40
2019-03-09T22:38:07.857Z,14.70
2019-03-09T22:39:07.095Z,13.60
2019-03-09T22:40:07.032Z,12.30
2019-03-09T22:41:07.063Z,11.10
2019-03-09T22:42:07.070Z,14.20
2019-03-09T22:43:07.085Z,15.40
2019-03-09T22:44:07.014Z,15.80
2019-03-09T22:45:07.025Z,13.90
2019-03-09T22:46:07.853Z,11.10
2019-03-09T22:47:11.579Z,13.10
2019-03-09T22:48:07.969Z,14.80
2019-03-09T22:49:06.951Z,15.20
2019-03-09T22:50:07.021Z,14.20
2019-03-09T22:51:06.914Z,15.50
2019-03-09T22:52:06.890Z,15.90
2019-03-09T22:53:06.977Z,17.90
2019-03-09T22:54:07.906Z,15.30
2019-03-09T22:55:06.884Z,12.30
2019-03-09T22:56:07.819Z,12.70
2019-03-09T22:57:06.852Z,16.80
2019-03-09T22:58:06.887Z,13.30
2019-03-09T22:59:06.874Z,12.80
2019-03-09T23:00:06.938Z,16.10
2019-03-09T23:01:06.937Z,13.30
2019-03-09T23:02:06.798Z,14.10
2019-03-09T23:03:06.806Z,14.40
2019-03-09T23:04:06.819Z,14.20
2019-03-09T23:05:06.756Z,13.00
2019-03-09T23:06:06.818Z,13.90
2019-03-09T23:07:06.762Z,12.60
2019-03-09T23:08:06.724Z,12.80
2019-03-09T23:09:06.724Z,11.90
2019-03-09T23:10:06.737Z,13.00
2019-03-09T23:11:07.410Z,16.00
2019-03-09T23:12:06.730Z,15.80
2019-03-09T23:13:06.685Z,14.40
2019-03-09T23:14:06.683Z,11.10
2019-03-09T23:15:06.659Z,16.30
2019-03-09T23:16:06.788Z,15.70
2019-03-09T23:17:06.639Z,13.90
2019-03-09T23:18:06.680Z,14.10
2019-03-09T23:19:06.680Z,14.10
2019-03-09T23:20:06.595Z,14.60
2019-03-09T23:21:07.362Z,12.00
2019-03-09T23:22:06.603Z,13.80
2019-03-09T23:23:06.552Z,17.20
2019-03-09T23:24:06.559Z,13.70
2019-03-09T23:25:06.544Z,17.10
2019-03-09T23:26:07.314Z,17.80
2019-03-09T23:27:06.587Z,10.50
2019-03-09T23:28:06.527Z,13.10
2019-03-09T23:29:06.522Z,15.30
2019-03-09T23:30:06.477Z,13.60
2019-03-09T23:31:06.477Z,10.70
2019-03-09T23:32:06.458Z,13.90
2019-03-09T23:33:06.461Z,15.20
2019-03-09T23:35:17.877Z,13.60
2019-03-09T23:36:17.466Z,14.40
2019-03-09T23:37:17.420Z,14.00
2019-03-09T23:38:17.921Z,16.90
2019-03-09T23:39:17.456Z,12.00
2019-03-09T23:40:17.314Z,12.90
2019-03-09T23:41:17.309Z,17.20
2019-03-09T23:42:17.889Z,16.80
2019-03-09T23:43:17.963Z,14.70
2019-03-09T23:44:17.410Z,13.70
2019-03-09T23:45:17.268Z,14.10
2019-03-09T23:46:17.891Z,16.00
2019-03-09T23:47:17.852Z,16.80
2019-03-09T23:48:17.417Z,13.60
2019-03-09T23:49:17.326Z,10.60
2019-03-09T23:50:17.531Z,12.80
2019-03-09T23:51:17.849Z,13.60
2019-03-09T23:52:17.844Z,13.50
2019-03-09T23:53:17.209Z,12.30
2019-03-09T23:54:17.107Z,14.70
2019-03-09T23:55:22.586Z,10.30
2019-03-09T23:56:18.056Z,14.70
2019-03-09T23:57:17.024Z,10.30
2019-03-09T23:58:17.038Z,11.30
2019-03-09T23:59:16.976Z,18.10
